sensor_id;sensor_type;location;lat;lon;timestamp;temperature;humidity
64997;SHT31;51545;51.568;6.998;2023-03-09T00:00:56;1.34;99.99
64997;SHT31;51545;51.568;6.998;2023-03-09T00:03:21;1.36;99.99
64997;SHT31;51545;51.568;6.998;2023-03-09T00:05:54;1.31;99.99
64997;SHT31;51545;51.568;6.998;2023-03-09T00:08:24;1.26;99.99
64997;SHT31;51545;51.568;6.998;2023-03-09T00:10:52;1.31;99.99
64997;SHT31;51545;51.568;6.998;2023-03-09T00:13:21;1.35;99.99
64997;SHT31;51545;51.568;6.998;2023-03-09T00:15:47;1.38;99.99
64997;SHT31;51545;51.568;6.998;2023-03-09T00:18:21;1.36;99.99
64997;SHT31;51545;51.568;6.998;2023-03-09T00:20:48;1.40;99.99
64997;SHT31;51545;51.568;6.998;2023-03-09T00:23:13;1.40;99.99
64997;SHT31;51545;51.568;6.998;2023-03-09T00:25:43;1.45;99.99
64997;SHT31;51545;51.568;6.998;2023-03-09T00:28:08;1.45;99.99
64997;SHT31;51545;51.568;6.998;2023-03-09T00:30:34;1.46;99.99
64997;SHT31;51545;51.568;6.998;2023-03-09T00:33:00;1.47;99.99
64997;SHT31;51545;51.568;6.998;2023-03-09T00:35:26;1.47;99.99
64997;SHT31;51545;51.568;6.998;2023-03-09T00:37:51;1.47;99.99
64997;SHT31;51545;51.568;6.998;2023-03-09T00:40:17;1.50;99.99
64997;SHT31;51545;51.568;6.998;2023-03-09T00:42:42;1.53;99.99
64997;SHT31;51545;51.568;6.998;2023-03-09T00:45:09;1.53;99.99
64997;SHT31;51545;51.568;6.998;2023-03-09T00:47:35;1.59;99.99
64997;SHT31;51545;51.568;6.998;2023-03-09T00:50:00;1.56;99.99
64997;SHT31;51545;51.568;6.998;2023-03-09T00:52:26;1.56;99.99
64997;SHT31;51545;51.568;6.998;2023-03-09T00:54:52;1.52;99.99
64997;SHT31;51545;51.568;6.998;2023-03-09T00:57:21;1.47;99.99
64997;SHT31;51545;51.568;6.998;2023-03-09T00:59:48;1.47;99.99
64997;SHT31;51545;51.568;6.998;2023-03-09T01:02:14;1.45;99.99
64997;SHT31;51545;51.568;6.998;2023-03-09T01:04:39;1.47;99.99
64997;SHT31;51545;51.568;6.998;2023-03-09T01:07:05;1.50;99.99
64997;SHT31;51545;51.568;6.998;2023-03-09T01:09:31;1.45;99.99
64997;SHT31;51545;51.568;6.998;2023-03-09T01:11:56;1.49;99.99
64997;SHT31;51545;51.568;6.998;2023-03-09T01:14:22;1.50;99.99
64997;SHT31;51545;51.568;6.998;2023-03-09T01:16:47;1.47;99.99
64997;SHT31;51545;51.568;6.998;2023-03-09T01:19:13;1.43;99.99
64997;SHT31;51545;51.568;6.998;2023-03-09T01:21:38;1.50;99.99
64997;SHT31;51545;51.568;6.998;2023-03-09T01:24:03;1.43;99.99
64997;SHT31;51545;51.568;6.998;2023-03-09T01:26:29;1.36;99.99
64997;SHT31;51545;51.568;6.998;2023-03-09T01:28:55;1.40;99.99
64997;SHT31;51545;51.568;6.998;2023-03-09T01:31:20;1.42;99.99
64997;SHT31;51545;51.568;6.998;2023-03-09T01:33:46;1.45;99.99
64997;SHT31;51545;51.568;6.998;2023-03-09T01:36:14;1.47;99.99
64997;SHT31;51545;51.568;6.998;2023-03-09T01:38:42;1.46;99.99
64997;SHT31;51545;51.568;6.998;2023-03-09T01:41:09;1.50;99.99
64997;SHT31;51545;51.568;6.998;2023-03-09T01:43:37;1.49;99.99
64997;SHT31;51545;51.568;6.998;2023-03-09T01:49:08;1.49;99.99
64997;SHT31;51545;51.568;6.998;2023-03-09T01:56:57;1.52;99.99
64997;SHT31;51545;51.568;6.998;2023-03-09T01:59:29;1.56;99.99
64997;SHT31;51545;51.568;6.998;2023-03-09T02:01:57;1.60;99.99
64997;SHT31;51545;51.568;6.998;2023-03-09T02:04:26;1.56;99.99
64997;SHT31;51545;51.568;6.998;2023-03-09T02:06:57;1.49;99.99
64997;SHT31;51545;51.568;6.998;2023-03-09T02:12:35;1.53;99.99
64997;SHT31;51545;51.568;6.998;2023-03-09T02:15:03;1.55;99.99
64997;SHT31;51545;51.568;6.998;2023-03-09T02:17:28;1.57;99.99
64997;SHT31;51545;51.568;6.998;2023-03-09T02:19:58;1.59;99.99
64997;SHT31;51545;51.568;6.998;2023-03-09T02:22:36;1.57;99.99
64997;SHT31;51545;51.568;6.998;2023-03-09T02:27:53;1.63;99.99
64997;SHT31;51545;51.568;6.998;2023-03-09T02:30:19;1.67;99.99
64997;SHT31;51545;51.568;6.998;2023-03-09T02:32:45;1.60;99.99
64997;SHT31;51545;51.568;6.998;2023-03-09T02:35:11;1.49;99.99
64997;SHT31;51545;51.568;6.998;2023-03-09T02:37:37;1.50;99.99
64997;SHT31;51545;51.568;6.998;2023-03-09T02:40:09;1.57;99.99
64997;SHT31;51545;51.568;6.998;2023-03-09T02:42:38;1.55;99.99
64997;SHT31;51545;51.568;6.998;2023-03-09T02:45:05;1.59;99.99
64997;SHT31;51545;51.568;6.998;2023-03-09T02:47:32;1.53;99.99
64997;SHT31;51545;51.568;6.998;2023-03-09T02:49:57;1.59;99.99
64997;SHT31;51545;51.568;6.998;2023-03-09T02:52:23;1.46;99.94
64997;SHT31;51545;51.568;6.998;2023-03-09T02:54:48;1.47;99.99
64997;SHT31;51545;51.568;6.998;2023-03-09T02:57:14;1.55;99.99
64997;SHT31;51545;51.568;6.998;2023-03-09T02:59:39;1.52;99.99
64997;SHT31;51545;51.568;6.998;2023-03-09T03:02:05;1.55;99.99
64997;SHT31;51545;51.568;6.998;2023-03-09T03:04:31;1.49;99.99
64997;SHT31;51545;51.568;6.998;2023-03-09T03:06:57;1.56;99.99
64997;SHT31;51545;51.568;6.998;2023-03-09T03:09:22;1.59;99.99
64997;SHT31;51545;51.568;6.998;2023-03-09T03:11:49;1.66;99.99
64997;SHT31;51545;51.568;6.998;2023-03-09T03:14:15;1.64;99.99
64997;SHT31;51545;51.568;6.998;2023-03-09T03:16:40;1.66;99.99
64997;SHT31;51545;51.568;6.998;2023-03-09T03:19:05;1.59;99.99
64997;SHT31;51545;51.568;6.998;2023-03-09T03:21:31;1.62;99.99
64997;SHT31;51545;51.568;6.998;2023-03-09T03:23:56;1.66;99.99
64997;SHT31;51545;51.568;6.998;2023-03-09T03:26:22;1.59;99.99
64997;SHT31;51545;51.568;6.998;2023-03-09T03:28:47;1.62;99.99
64997;SHT31;51545;51.568;6.998;2023-03-09T03:31:13;1.67;99.99
64997;SHT31;51545;51.568;6.998;2023-03-09T03:33:38;1.66;99.99
64997;SHT31;51545;51.568;6.998;2023-03-09T03:36:04;1.68;99.99
64997;SHT31;51545;51.568;6.998;2023-03-09T03:38:30;1.64;99.99
64997;SHT31;51545;51.568;6.998;2023-03-09T03:40:56;1.62;99.99
64997;SHT31;51545;51.568;6.998;2023-03-09T03:43:22;1.63;99.99
64997;SHT31;51545;51.568;6.998;2023-03-09T03:45:47;1.67;99.99
64997;SHT31;51545;51.568;6.998;2023-03-09T03:48:13;1.68;99.99
64997;SHT31;51545;51.568;6.998;2023-03-09T03:50:38;1.60;99.99
64997;SHT31;51545;51.568;6.998;2023-03-09T03:53:05;1.56;99.99
64997;SHT31;51545;51.568;6.998;2023-03-09T03:55:30;1.59;99.99
64997;SHT31;51545;51.568;6.998;2023-03-09T03:57:56;1.62;99.99
64997;SHT31;51545;51.568;6.998;2023-03-09T04:00:22;1.67;99.99
64997;SHT31;51545;51.568;6.998;2023-03-09T04:02:48;1.70;99.99
64997;SHT31;51545;51.568;6.998;2023-03-09T04:05:13;1.73;99.99
64997;SHT31;51545;51.568;6.998;2023-03-09T04:07:39;1.64;99.99
64997;SHT31;51545;51.568;6.998;2023-03-09T04:10:04;1.66;99.99
64997;SHT31;51545;51.568;6.998;2023-03-09T04:12:30;1.64;99.99
64997;SHT31;51545;51.568;6.998;2023-03-09T04:14:56;1.60;99.99
64997;SHT31;51545;51.568;6.998;2023-03-09T04:17:21;1.70;99.99
64997;SHT31;51545;51.568;6.998;2023-03-09T04:19:47;1.68;99.99
64997;SHT31;51545;51.568;6.998;2023-03-09T04:22:12;1.57;99.99
64997;SHT31;51545;51.568;6.998;2023-03-09T04:24:37;1.63;99.99
64997;SHT31;51545;51.568;6.998;2023-03-09T04:27:03;1.64;99.99
64997;SHT31;51545;51.568;6.998;2023-03-09T04:29:28;1.63;99.99
64997;SHT31;51545;51.568;6.998;2023-03-09T04:31:54;1.57;99.99
64997;SHT31;51545;51.568;6.998;2023-03-09T04:34:19;1.56;99.99
64997;SHT31;51545;51.568;6.998;2023-03-09T04:36:45;1.50;99.99
64997;SHT31;51545;51.568;6.998;2023-03-09T04:39:10;1.53;99.99
64997;SHT31;51545;51.568;6.998;2023-03-09T04:41:36;1.55;99.99
64997;SHT31;51545;51.568;6.998;2023-03-09T04:44:01;1.52;99.99
64997;SHT31;51545;51.568;6.998;2023-03-09T04:46:27;1.42;99.99
64997;SHT31;51545;51.568;6.998;2023-03-09T04:48:53;1.52;99.99
64997;SHT31;51545;51.568;6.998;2023-03-09T04:51:18;1.59;99.99
64997;SHT31;51545;51.568;6.998;2023-03-09T04:53:44;1.64;99.99
64997;SHT31;51545;51.568;6.998;2023-03-09T04:56:09;1.66;99.99
64997;SHT31;51545;51.568;6.998;2023-03-09T04:58:34;1.64;99.99
64997;SHT31;51545;51.568;6.998;2023-03-09T05:01:00;1.60;99.99
64997;SHT31;51545;51.568;6.998;2023-03-09T05:03:29;1.63;99.99
64997;SHT31;51545;51.568;6.998;2023-03-09T05:05:55;1.60;99.99
64997;SHT31;51545;51.568;6.998;2023-03-09T05:08:20;1.63;99.99
64997;SHT31;51545;51.568;6.998;2023-03-09T05:10:46;1.60;99.99
64997;SHT31;51545;51.568;6.998;2023-03-09T05:13:11;1.55;99.99
64997;SHT31;51545;51.568;6.998;2023-03-09T05:15:38;1.53;99.99
64997;SHT31;51545;51.568;6.998;2023-03-09T05:18:04;1.55;99.99
64997;SHT31;51545;51.568;6.998;2023-03-09T05:20:30;1.52;99.99
64997;SHT31;51545;51.568;6.998;2023-03-09T05:22:57;1.60;99.99
64997;SHT31;51545;51.568;6.998;2023-03-09T05:25:22;1.63;99.99
64997;SHT31;51545;51.568;6.998;2023-03-09T05:27:48;1.66;99.99
64997;SHT31;51545;51.568;6.998;2023-03-09T05:30:13;1.68;99.99
64997;SHT31;51545;51.568;6.998;2023-03-09T05:32:39;1.70;99.99
64997;SHT31;51545;51.568;6.998;2023-03-09T05:35:05;1.73;99.99
64997;SHT31;51545;51.568;6.998;2023-03-09T05:37:31;1.70;99.99
64997;SHT31;51545;51.568;6.998;2023-03-09T05:39:58;1.71;99.99
64997;SHT31;51545;51.568;6.998;2023-03-09T05:42:24;1.71;99.99
64997;SHT31;51545;51.568;6.998;2023-03-09T05:44:50;1.70;99.99
64997;SHT31;51545;51.568;6.998;2023-03-09T05:47:15;1.73;99.99
64997;SHT31;51545;51.568;6.998;2023-03-09T05:49:41;1.68;99.99
64997;SHT31;51545;51.568;6.998;2023-03-09T05:52:06;1.63;99.99
64997;SHT31;51545;51.568;6.998;2023-03-09T05:54:32;1.57;99.99
64997;SHT31;51545;51.568;6.998;2023-03-09T05:56:58;1.66;99.99
64997;SHT31;51545;51.568;6.998;2023-03-09T05:59:24;1.70;99.99
64997;SHT31;51545;51.568;6.998;2023-03-09T06:01:49;1.71;99.99
64997;SHT31;51545;51.568;6.998;2023-03-09T06:04:15;1.74;99.99
64997;SHT31;51545;51.568;6.998;2023-03-09T06:06:40;1.77;99.99
64997;SHT31;51545;51.568;6.998;2023-03-09T06:09:06;1.71;99.99
64997;SHT31;51545;51.568;6.998;2023-03-09T06:11:31;1.63;99.99
64997;SHT31;51545;51.568;6.998;2023-03-09T06:13:57;1.63;99.99
64997;SHT31;51545;51.568;6.998;2023-03-09T06:16:23;1.66;99.99
64997;SHT31;51545;51.568;6.998;2023-03-09T06:18:49;1.62;99.99
64997;SHT31;51545;51.568;6.998;2023-03-09T06:21:15;1.62;99.99
64997;SHT31;51545;51.568;6.998;2023-03-09T06:23:41;1.63;99.99
64997;SHT31;51545;51.568;6.998;2023-03-09T06:26:09;1.59;99.99
64997;SHT31;51545;51.568;6.998;2023-03-09T06:28:36;1.63;99.99
64997;SHT31;51545;51.568;6.998;2023-03-09T06:31:05;1.64;99.99
64997;SHT31;51545;51.568;6.998;2023-03-09T06:33:32;1.63;99.99
64997;SHT31;51545;51.568;6.998;2023-03-09T06:36:01;1.57;99.99
64997;SHT31;51545;51.568;6.998;2023-03-09T06:38:28;1.62;99.99
64997;SHT31;51545;51.568;6.998;2023-03-09T06:40:53;1.59;99.99
64997;SHT31;51545;51.568;6.998;2023-03-09T06:43:19;1.62;99.99
64997;SHT31;51545;51.568;6.998;2023-03-09T06:45:45;1.64;99.99
64997;SHT31;51545;51.568;6.998;2023-03-09T06:48:11;1.66;99.99
64997;SHT31;51545;51.568;6.998;2023-03-09T06:50:36;1.71;99.99
64997;SHT31;51545;51.568;6.998;2023-03-09T06:53:02;1.85;99.99
64997;SHT31;51545;51.568;6.998;2023-03-09T06:55:28;1.85;99.99
64997;SHT31;51545;51.568;6.998;2023-03-09T06:57:53;1.85;99.99
64997;SHT31;51545;51.568;6.998;2023-03-09T07:00:19;1.88;99.99
64997;SHT31;51545;51.568;6.998;2023-03-09T07:02:45;1.87;99.96
64997;SHT31;51545;51.568;6.998;2023-03-09T07:05:11;1.85;99.93
64997;SHT31;51545;51.568;6.998;2023-03-09T07:07:37;1.92;99.91
64997;SHT31;51545;51.568;6.998;2023-03-09T07:10:05;2.02;99.95
64997;SHT31;51545;51.568;6.998;2023-03-09T07:12:31;2.03;99.92
64997;SHT31;51545;51.568;6.998;2023-03-09T07:14:56;1.97;99.81
64997;SHT31;51545;51.568;6.998;2023-03-09T07:17:22;2.11;99.95
64997;SHT31;51545;51.568;6.998;2023-03-09T07:19:47;2.13;99.84
64997;SHT31;51545;51.568;6.998;2023-03-09T07:22:13;2.18;99.73
64997;SHT31;51545;51.568;6.998;2023-03-09T07:24:39;2.23;99.68
64997;SHT31;51545;51.568;6.998;2023-03-09T07:27:04;2.26;99.61
64997;SHT31;51545;51.568;6.998;2023-03-09T07:29:31;2.23;99.51
64997;SHT31;51545;51.568;6.998;2023-03-09T07:31:56;2.30;99.54
64997;SHT31;51545;51.568;6.998;2023-03-09T07:34:22;2.36;99.48
64997;SHT31;51545;51.568;6.998;2023-03-09T07:36:47;2.30;99.27
64997;SHT31;51545;51.568;6.998;2023-03-09T07:39:13;2.29;99.14
64997;SHT31;51545;51.568;6.998;2023-03-09T07:41:40;2.39;99.23
64997;SHT31;51545;51.568;6.998;2023-03-09T07:44:07;2.43;99.19
64997;SHT31;51545;51.568;6.998;2023-03-09T07:46:32;2.47;99.11
64997;SHT31;51545;51.568;6.998;2023-03-09T07:48:58;2.50;98.98
64997;SHT31;51545;51.568;6.998;2023-03-09T07:51:23;2.50;98.84
64997;SHT31;51545;51.568;6.998;2023-03-09T07:53:49;2.46;98.60
64997;SHT31;51545;51.568;6.998;2023-03-09T07:56:15;2.50;98.64
64997;SHT31;51545;51.568;6.998;2023-03-09T07:58:40;2.53;98.63
64997;SHT31;51545;51.568;6.998;2023-03-09T08:01:07;2.58;98.56
64997;SHT31;51545;51.568;6.998;2023-03-09T08:03:38;2.61;98.43
64997;SHT31;51545;51.568;6.998;2023-03-09T08:06:04;2.71;98.38
64997;SHT31;51545;51.568;6.998;2023-03-09T08:08:31;2.67;98.08
64997;SHT31;51545;51.568;6.998;2023-03-09T08:10:57;2.71;98.02
64997;SHT31;51545;51.568;6.998;2023-03-09T08:13:23;2.75;97.97
64997;SHT31;51545;51.568;6.998;2023-03-09T08:15:49;2.78;97.86
64997;SHT31;51545;51.568;6.998;2023-03-09T08:18:16;2.84;97.75
64997;SHT31;51545;51.568;6.998;2023-03-09T08:20:45;2.85;97.71
64997;SHT31;51545;51.568;6.998;2023-03-09T08:23:11;2.87;97.59
64997;SHT31;51545;51.568;6.998;2023-03-09T08:25:37;2.87;97.42
64997;SHT31;51545;51.568;6.998;2023-03-09T08:28:04;2.88;97.50
64997;SHT31;51545;51.568;6.998;2023-03-09T08:30:29;2.91;97.64
64997;SHT31;51545;51.568;6.998;2023-03-09T08:32:56;3.01;97.52
64997;SHT31;51545;51.568;6.998;2023-03-09T08:35:23;3.08;97.58
64997;SHT31;51545;51.568;6.998;2023-03-09T08:37:52;2.92;96.92
64997;SHT31;51545;51.568;6.998;2023-03-09T08:40:18;2.98;96.92
64997;SHT31;51545;51.568;6.998;2023-03-09T08:42:43;2.99;96.82
64997;SHT31;51545;51.568;6.998;2023-03-09T08:45:09;3.02;96.65
64997;SHT31;51545;51.568;6.998;2023-03-09T08:47:35;3.06;96.48
64997;SHT31;51545;51.568;6.998;2023-03-09T08:50:01;3.18;96.50
64997;SHT31;51545;51.568;6.998;2023-03-09T08:52:26;3.35;96.44
64997;SHT31;51545;51.568;6.998;2023-03-09T08:54:52;3.38;95.93
64997;SHT31;51545;51.568;6.998;2023-03-09T08:57:17;3.43;95.95
64997;SHT31;51545;51.568;6.998;2023-03-09T08:59:43;3.51;95.81
64997;SHT31;51545;51.568;6.998;2023-03-09T09:02:12;3.60;95.57
64997;SHT31;51545;51.568;6.998;2023-03-09T09:04:45;3.71;95.41
64997;SHT31;51545;51.568;6.998;2023-03-09T09:07:11;3.70;94.93
64997;SHT31;51545;51.568;6.998;2023-03-09T09:09:39;3.75;94.66
64997;SHT31;51545;51.568;6.998;2023-03-09T09:12:06;3.88;94.68
64997;SHT31;51545;51.568;6.998;2023-03-09T09:14:32;3.81;94.53
64997;SHT31;51545;51.568;6.998;2023-03-09T09:16:58;3.94;94.56
64997;SHT31;51545;51.568;6.998;2023-03-09T09:19:24;3.98;93.96
64997;SHT31;51545;51.568;6.998;2023-03-09T09:21:49;4.09;94.00
64997;SHT31;51545;51.568;6.998;2023-03-09T09:24:17;4.03;93.62
64997;SHT31;51545;51.568;6.998;2023-03-09T09:26:44;3.98;93.28
64997;SHT31;51545;51.568;6.998;2023-03-09T09:29:09;3.98;93.51
64997;SHT31;51545;51.568;6.998;2023-03-09T09:31:35;3.92;93.11
64997;SHT31;51545;51.568;6.998;2023-03-09T09:34:01;3.81;93.40
64997;SHT31;51545;51.568;6.998;2023-03-09T09:36:26;3.88;93.64
64997;SHT31;51545;51.568;6.998;2023-03-09T09:38:52;4.10;93.82
64997;SHT31;51545;51.568;6.998;2023-03-09T09:41:26;3.96;92.79
64997;SHT31;51545;51.568;6.998;2023-03-09T09:44:02;3.75;93.23
64997;SHT31;51545;51.568;6.998;2023-03-09T09:46:33;3.86;93.93
64997;SHT31;51545;51.568;6.998;2023-03-09T09:49:00;3.89;93.64
64997;SHT31;51545;51.568;6.998;2023-03-09T09:56:47;4.27;94.23
64997;SHT31;51545;51.568;6.998;2023-03-09T09:59:23;4.24;93.78
64997;SHT31;51545;51.568;6.998;2023-03-09T10:01:52;4.32;94.10
64997;SHT31;51545;51.568;6.998;2023-03-09T10:04:28;4.30;93.82
64997;SHT31;51545;51.568;6.998;2023-03-09T10:06:59;4.41;93.72
64997;SHT31;51545;51.568;6.998;2023-03-09T10:09:30;4.30;93.11
64997;SHT31;51545;51.568;6.998;2023-03-09T10:12:00;4.05;93.58
64997;SHT31;51545;51.568;6.998;2023-03-09T10:14:49;3.96;94.10
64997;SHT31;51545;51.568;6.998;2023-03-09T10:20:10;3.70;94.18
64997;SHT31;51545;51.568;6.998;2023-03-09T10:22:36;3.75;94.88
64997;SHT31;51545;51.568;6.998;2023-03-09T10:25:07;3.88;94.67
64997;SHT31;51545;51.568;6.998;2023-03-09T10:27:43;4.03;94.52
64997;SHT31;51545;51.568;6.998;2023-03-09T10:38:32;4.50;93.80
64997;SHT31;51545;51.568;6.998;2023-03-09T10:40:58;4.51;93.35
64997;SHT31;51545;51.568;6.998;2023-03-09T10:43:30;4.29;92.90
64997;SHT31;51545;51.568;6.998;2023-03-09T10:46:22;4.33;93.05
64997;SHT31;51545;51.568;6.998;2023-03-09T10:48:48;4.32;93.17
64997;SHT31;51545;51.568;6.998;2023-03-09T10:51:25;4.23;93.13
64997;SHT31;51545;51.568;6.998;2023-03-09T10:53:53;4.26;93.93
64997;SHT31;51545;51.568;6.998;2023-03-09T10:56:25;4.22;94.06
64997;SHT31;51545;51.568;6.998;2023-03-09T11:01:28;4.05;93.89
64997;SHT31;51545;51.568;6.998;2023-03-09T11:03:54;3.88;94.04
64997;SHT31;51545;51.568;6.998;2023-03-09T11:06:24;3.96;94.77
64997;SHT31;51545;51.568;6.998;2023-03-09T11:11:25;3.96;94.65
64997;SHT31;51545;51.568;6.998;2023-03-09T11:13:52;3.92;94.36
64997;SHT31;51545;51.568;6.998;2023-03-09T11:16:23;4.01;94.81
64997;SHT31;51545;51.568;6.998;2023-03-09T11:19:04;4.01;95.05
64997;SHT31;51545;51.568;6.998;2023-03-09T11:21:34;3.98;94.59
64997;SHT31;51545;51.568;6.998;2023-03-09T11:24:02;3.96;94.32
64997;SHT31;51545;51.568;6.998;2023-03-09T11:32:00;4.20;93.95
64997;SHT31;51545;51.568;6.998;2023-03-09T11:34:33;4.27;94.09
64997;SHT31;51545;51.568;6.998;2023-03-09T11:42:24;4.47;93.35
64997;SHT31;51545;51.568;6.998;2023-03-09T11:45:01;4.41;93.05
64997;SHT31;51545;51.568;6.998;2023-03-09T11:47:37;4.50;93.14
64997;SHT31;51545;51.568;6.998;2023-03-09T11:50:27;4.58;92.88
64997;SHT31;51545;51.568;6.998;2023-03-09T11:53:04;4.57;92.16
64997;SHT31;51545;51.568;6.998;2023-03-09T11:55:35;4.61;92.72
64997;SHT31;51545;51.568;6.998;2023-03-09T11:58:05;4.58;92.38
64997;SHT31;51545;51.568;6.998;2023-03-09T12:00:37;4.62;92.82
64997;SHT31;51545;51.568;6.998;2023-03-09T12:03:15;4.60;93.12
64997;SHT31;51545;51.568;6.998;2023-03-09T12:06:01;4.64;93.22
64997;SHT31;51545;51.568;6.998;2023-03-09T12:08:43;4.84;93.65
64997;SHT31;51545;51.568;6.998;2023-03-09T12:11:13;4.69;93.68
64997;SHT31;51545;51.568;6.998;2023-03-09T12:13:52;4.54;93.49
64997;SHT31;51545;51.568;6.998;2023-03-09T12:16:26;4.37;93.61
64997;SHT31;51545;51.568;6.998;2023-03-09T12:19:04;4.47;93.89
64997;SHT31;51545;51.568;6.998;2023-03-09T12:21:39;4.30;94.35
64997;SHT31;51545;51.568;6.998;2023-03-09T12:27:44;4.46;95.03
64997;SHT31;51545;51.568;6.998;2023-03-09T12:29:51;4.30;95.00
64997;SHT31;51545;51.568;6.998;2023-03-09T12:34:55;4.49;95.36
64997;SHT31;51545;51.568;6.998;2023-03-09T12:42:41;4.47;96.12
64997;SHT31;51545;51.568;6.998;2023-03-09T12:55:21;4.91;95.37
64997;SHT31;51545;51.568;6.998;2023-03-09T12:57:49;4.67;95.24
64997;SHT31;51545;51.568;6.998;2023-03-09T13:00:29;4.72;95.43
64997;SHT31;51545;51.568;6.998;2023-03-09T13:03:04;4.74;95.84
64997;SHT31;51545;51.568;6.998;2023-03-09T13:05:46;5.07;96.06
64997;SHT31;51545;51.568;6.998;2023-03-09T13:08:32;5.05;95.00
64997;SHT31;51545;51.568;6.998;2023-03-09T13:11:20;5.09;94.80
64997;SHT31;51545;51.568;6.998;2023-03-09T13:13:58;5.20;95.01
64997;SHT31;51545;51.568;6.998;2023-03-09T13:24:13;4.89;94.94
64997;SHT31;51545;51.568;6.998;2023-03-09T13:26:42;4.91;95.29
64997;SHT31;51545;51.568;6.998;2023-03-09T13:29:09;4.85;95.00
64997;SHT31;51545;51.568;6.998;2023-03-09T13:31:40;4.77;95.68
64997;SHT31;51545;51.568;6.998;2023-03-09T13:34:12;5.12;96.18
64997;SHT31;51545;51.568;6.998;2023-03-09T13:36:42;5.19;95.91
64997;SHT31;51545;51.568;6.998;2023-03-09T13:39:13;5.19;96.25
64997;SHT31;51545;51.568;6.998;2023-03-09T13:41:43;5.34;96.24
64997;SHT31;51545;51.568;6.998;2023-03-09T13:44:13;5.44;96.43
64997;SHT31;51545;51.568;6.998;2023-03-09T13:46:46;5.54;96.26
64997;SHT31;51545;51.568;6.998;2023-03-09T13:49:18;5.55;96.00
64997;SHT31;51545;51.568;6.998;2023-03-09T13:51:53;5.55;96.34
64997;SHT31;51545;51.568;6.998;2023-03-09T13:57:03;5.37;95.87
64997;SHT31;51545;51.568;6.998;2023-03-09T13:59:41;5.33;96.33
64997;SHT31;51545;51.568;6.998;2023-03-09T14:02:10;5.24;96.40
64997;SHT31;51545;51.568;6.998;2023-03-09T14:04:49;5.12;96.47
64997;SHT31;51545;51.568;6.998;2023-03-09T14:07:21;5.06;96.75
64997;SHT31;51545;51.568;6.998;2023-03-09T14:10:02;4.93;97.08
64997;SHT31;51545;51.568;6.998;2023-03-09T14:12:33;5.03;97.38
64997;SHT31;51545;51.568;6.998;2023-03-09T14:15:02;5.07;97.57
64997;SHT31;51545;51.568;6.998;2023-03-09T14:17:30;4.93;97.61
64997;SHT31;51545;51.568;6.998;2023-03-09T14:19:59;4.96;97.54
64997;SHT31;51545;51.568;6.998;2023-03-09T14:22:27;4.91;97.79
64997;SHT31;51545;51.568;6.998;2023-03-09T14:24:54;4.77;97.93
64997;SHT31;51545;51.568;6.998;2023-03-09T14:29:53;4.78;98.75
64997;SHT31;51545;51.568;6.998;2023-03-09T14:32:29;4.89;98.82
64997;SHT31;51545;51.568;6.998;2023-03-09T14:34:58;4.81;98.88
64997;SHT31;51545;51.568;6.998;2023-03-09T14:37:50;4.85;99.15
64997;SHT31;51545;51.568;6.998;2023-03-09T14:40:22;4.75;99.04
64997;SHT31;51545;51.568;6.998;2023-03-09T14:42:51;4.71;99.32
64997;SHT31;51545;51.568;6.998;2023-03-09T14:45:21;4.75;99.62
64997;SHT31;51545;51.568;6.998;2023-03-09T14:47:51;4.72;99.61
64997;SHT31;51545;51.568;6.998;2023-03-09T14:50:21;4.71;99.60
64997;SHT31;51545;51.568;6.998;2023-03-09T14:52:48;4.61;99.99
64997;SHT31;51545;51.568;6.998;2023-03-09T14:55:18;4.69;99.99
64997;SHT31;51545;51.568;6.998;2023-03-09T14:57:46;4.67;99.99
64997;SHT31;51545;51.568;6.998;2023-03-09T15:00:22;4.79;99.99
64997;SHT31;51545;51.568;6.998;2023-03-09T15:02:50;4.82;99.99
64997;SHT31;51545;51.568;6.998;2023-03-09T15:05:18;4.88;99.99
64997;SHT31;51545;51.568;6.998;2023-03-09T15:07:45;4.95;99.99
64997;SHT31;51545;51.568;6.998;2023-03-09T15:10:11;5.16;99.99
64997;SHT31;51545;51.568;6.998;2023-03-09T15:12:37;5.09;99.99
64997;SHT31;51545;51.568;6.998;2023-03-09T15:15:04;5.19;99.99
64997;SHT31;51545;51.568;6.998;2023-03-09T15:17:39;5.15;99.99
64997;SHT31;51545;51.568;6.998;2023-03-09T15:20:04;5.33;99.99
64997;SHT31;51545;51.568;6.998;2023-03-09T15:22:30;5.30;99.97
64997;SHT31;51545;51.568;6.998;2023-03-09T15:24:56;5.35;99.99
64997;SHT31;51545;51.568;6.998;2023-03-09T15:27:21;5.33;99.99
64997;SHT31;51545;51.568;6.998;2023-03-09T15:29:46;5.27;99.99
64997;SHT31;51545;51.568;6.998;2023-03-09T15:32:12;5.27;99.98
64997;SHT31;51545;51.568;6.998;2023-03-09T15:34:38;5.20;99.99
64997;SHT31;51545;51.568;6.998;2023-03-09T15:37:05;5.20;99.99
64997;SHT31;51545;51.568;6.998;2023-03-09T15:39:31;5.27;99.99
64997;SHT31;51545;51.568;6.998;2023-03-09T15:41:58;5.34;99.99
64997;SHT31;51545;51.568;6.998;2023-03-09T15:44:23;5.20;99.83
64997;SHT31;51545;51.568;6.998;2023-03-09T15:46:49;5.28;99.96
64997;SHT31;51545;51.568;6.998;2023-03-09T15:49:14;5.31;99.99
64997;SHT31;51545;51.568;6.998;2023-03-09T15:51:40;5.34;99.99
64997;SHT31;51545;51.568;6.998;2023-03-09T15:54:05;5.41;99.99
64997;SHT31;51545;51.568;6.998;2023-03-09T15:56:31;5.38;99.99
64997;SHT31;51545;51.568;6.998;2023-03-09T15:58:57;5.40;99.99
64997;SHT31;51545;51.568;6.998;2023-03-09T16:01:23;5.35;99.99
64997;SHT31;51545;51.568;6.998;2023-03-09T16:03:49;5.41;99.99
64997;SHT31;51545;51.568;6.998;2023-03-09T16:06:17;5.41;99.99
64997;SHT31;51545;51.568;6.998;2023-03-09T16:08:44;5.51;99.99
64997;SHT31;51545;51.568;6.998;2023-03-09T16:11:10;5.58;99.99
64997;SHT31;51545;51.568;6.998;2023-03-09T16:13:36;5.55;99.99
64997;SHT31;51545;51.568;6.998;2023-03-09T16:16:01;5.55;99.99
64997;SHT31;51545;51.568;6.998;2023-03-09T16:18:27;5.55;99.99
64997;SHT31;51545;51.568;6.998;2023-03-09T16:20:53;5.51;99.97
64997;SHT31;51545;51.568;6.998;2023-03-09T16:23:18;5.55;99.99
64997;SHT31;51545;51.568;6.998;2023-03-09T16:25:51;5.52;99.92
64997;SHT31;51545;51.568;6.998;2023-03-09T16:28:18;5.48;99.93
64997;SHT31;51545;51.568;6.998;2023-03-09T16:30:43;5.45;99.99
64997;SHT31;51545;51.568;6.998;2023-03-09T16:33:09;5.38;99.99
64997;SHT31;51545;51.568;6.998;2023-03-09T16:35:35;5.37;99.99
64997;SHT31;51545;51.568;6.998;2023-03-09T16:38:00;5.34;99.99
64997;SHT31;51545;51.568;6.998;2023-03-09T16:40:26;5.31;99.99
64997;SHT31;51545;51.568;6.998;2023-03-09T16:42:52;5.20;99.98
64997;SHT31;51545;51.568;6.998;2023-03-09T16:45:17;5.15;99.99
64997;SHT31;51545;51.568;6.998;2023-03-09T16:47:44;5.15;99.99
64997;SHT31;51545;51.568;6.998;2023-03-09T16:50:15;5.00;99.95
64997;SHT31;51545;51.568;6.998;2023-03-09T16:52:42;4.92;99.99
64997;SHT31;51545;51.568;6.998;2023-03-09T16:55:10;4.92;99.99
64997;SHT31;51545;51.568;6.998;2023-03-09T16:57:37;4.88;99.99
64997;SHT31;51545;51.568;6.998;2023-03-09T17:00:03;4.85;99.99
64997;SHT31;51545;51.568;6.998;2023-03-09T17:02:33;4.89;99.99
64997;SHT31;51545;51.568;6.998;2023-03-09T17:04:59;4.86;99.99
64997;SHT31;51545;51.568;6.998;2023-03-09T17:07:29;4.82;99.99
64997;SHT31;51545;51.568;6.998;2023-03-09T17:09:54;4.78;99.99